To NAV CANADA Home Page Login to a new session Search on AWWS site Feedback and Comments Disclaimer Vers la page française équivalente Tips FAQ What's new on the site To the Forecasts and Observations / NOTAM section To "File a Flight Plan" website Publications and other links Update of the User's profile FIC Telephone Numbers My Weather Data Folder Route Weather Data Regional Weather Data Local Weather Data To the Forecasts and Observations / NOTAM section
Request Generated 05/05/2016 at 21:55:41 UTC . Weather information available at that time is displayed.

METAR/TAF

COMOX/BC    

METAR CYQQ 052100Z 35008KT 20SM FEW040 18/07 A3008 RMK CU1 SLP185=
METAR CYQQ 052000Z 01008KT 20SM FEW040 FEW270 16/08 A3008 RMK CF1CI1 SLP188=
METAR CYQQ 051900Z 36008KT 20SM FEW035 FEW270 14/07 A3010 RMK CF1CI1 SLP192=

TAF CYQQ 051739Z 0518/0618 35012G22KT P6SM FEW250
RMK NXT FCST BY 060000Z=
Your time UTC time
Weather data provided by Environment Canada and NAV CANADA